Time;durP1;ratioP1;P1;durP2;ratioP2;P2;SDS_P1;SDS_P2;PMS_P1;PMS_P2;Temp;Humidity;BMP_temperature;BMP_pressure;BME280_temperature;BME280_humidity;BME280_pressure;Samples;Min_cycle;Max_cycle;Signal;HPM_P1;HPM_P2
2023/06/27 00:02:20;;;;;;;13.87;5.57;;;17.50;13.40;;;;;;5075453;28;20177;-62
2023/06/27 00:04:47;;;;;;;8.67;5.37;;;17.50;15.50;;;;;;5075308;28;20173;-62
2023/06/27 00:07:13;;;;;;;13.97;5.70;;;17.50;17.00;;;;;;5075136;28;20173;-63
2023/06/27 00:09:38;;;;;;;9.30;5.03;;;17.50;16.50;;;;;;5075078;28;20183;-62
2023/06/27 00:12:06;;;;;;;11.17;4.77;;;17.40;18.50;;;;;;5074772;28;20642;-64
2023/06/27 00:14:36;;;;;;;10.90;4.77;;;17.50;18.40;;;;;;5075218;28;20215;-62
2023/06/27 00:17:10;;;;;;;10.93;4.20;;;17.40;19.40;;;;;;5075254;28;20222;-63
2023/06/27 00:19:35;;;;;;;14.80;4.37;;;17.40;19.80;;;;;;5075126;28;20169;-63
2023/06/27 00:22:09;;;;;;;8.40;3.47;;;17.40;21.40;;;;;;5074848;28;20165;-62
2023/06/27 00:24:38;;;;;;;10.70;3.93;;;17.40;22.00;;;;;;5074870;28;20250;-62
2023/06/27 00:27:05;;;;;;;9.47;4.13;;;17.30;23.40;;;;;;5074476;28;20546;-61
2023/06/27 00:29:34;;;;;;;10.97;3.93;;;17.30;26.00;;;;;;5074252;28;20180;-63
2023/06/27 00:32:00;;;;;;;10.00;3.90;;;17.20;27.00;;;;;;5074580;28;20647;-62
2023/06/27 00:34:25;;;;;;;11.40;4.20;;;17.20;27.80;;;;;;5074566;28;20201;-63
2023/06/27 00:36:51;;;;;;;10.97;3.80;;;17.20;29.30;;;;;;5074638;28;20525;-63
2023/06/27 00:39:16;;;;;;;10.00;3.40;;;17.20;28.80;;;;;;5074450;28;20255;-64
2023/06/27 00:41:42;;;;;;;8.27;3.20;;;17.10;31.80;;;;;;5074263;28;20176;-63
2023/06/27 00:44:08;;;;;;;7.57;3.27;;;17.10;33.10;;;;;;5074664;28;20229;-61
2023/06/27 00:46:36;;;;;;;7.40;3.33;;;17.00;32.70;;;;;;5074515;28;20176;-62
2023/06/27 00:49:02;;;;;;;8.53;3.30;;;17.00;33.10;;;;;;5074335;28;20169;-62
2023/06/27 00:51:29;;;;;;;8.47;3.27;;;17.00;35.70;;;;;;5074421;28;20230;-63
2023/06/27 00:53:54;;;;;;;8.70;2.73;;;16.90;38.60;;;;;;5074078;28;20212;-63
2023/06/27 00:56:20;;;;;;;10.97;3.00;;;16.90;39.70;;;;;;5073870;28;20168;-62
2023/06/27 00:58:46;;;;;;;8.30;3.20;;;16.90;42.80;;;;;;5074333;28;20180;-63
2023/06/27 01:01:11;;;;;;;5.67;2.70;;;16.80;45.00;;;;;;5074145;28;20195;-62
2023/06/27 01:03:37;;;;;;;12.67;3.20;;;16.80;44.50;;;;;;5074024;28;20655;-62
2023/06/27 01:06:14;;;;;;;8.97;3.00;;;16.70;48.00;;;;;;5074107;28;20204;-63
2023/06/27 01:08:56;;;;;;;12.70;3.43;;;16.70;52.40;;;;;;5074104;28;20552;-63
2023/06/27 01:11:27;;;;;;;7.30;3.20;;;16.70;54.40;;;;;;5074017;28;20176;-62
2023/06/27 01:13:56;;;;;;;12.37;3.67;;;16.70;54.30;;;;;;5074056;28;20269;-62
2023/06/27 01:16:27;;;;;;;10.87;2.77;;;16.80;55.80;;;;;;5073972;28;20192;-64
2023/06/27 01:18:54;;;;;;;9.23;3.40;;;16.80;51.10;;;;;;5073813;28;20164;-63
2023/06/27 01:21:23;;;;;;;11.27;2.90;;;16.80;51.20;;;;;;5073776;28;20172;-62
2023/06/27 01:23:50;;;;;;;7.53;3.10;;;16.70;52.20;;;;;;5073226;28;20168;-62
2023/06/27 01:26:16;;;;;;;7.03;2.97;;;16.70;54.40;;;;;;5073541;28;20310;-63
2023/06/27 01:28:42;;;;;;;7.07;2.90;;;16.60;54.70;;;;;;5073904;28;20255;-63
2023/06/27 01:31:13;;;;;;;6.37;3.20;;;16.60;56.40;;;;;;5073713;28;20624;-63
2023/06/27 01:33:46;;;;;;;12.03;3.37;;;16.60;56.20;;;;;;5073568;28;20212;-62
2023/06/27 01:36:20;;;;;;;5.87;2.70;;;16.60;58.50;;;;;;5073484;28;20165;-63
2023/06/27 01:38:56;;;;;;;9.10;3.20;;;16.50;58.80;;;;;;5073138;28;20243;-62
2023/06/27 01:41:26;;;;;;;8.23;3.13;;;16.50;61.90;;;;;;5073433;28;20253;-63
2023/06/27 01:43:53;;;;;;;8.90;2.93;;;16.50;62.40;;;;;;5073425;28;20302;-63
2023/06/27 01:46:21;;;;;;;7.97;3.00;;;16.60;63.60;;;;;;5073379;28;20164;-63
2023/06/27 01:48:50;;;;;;;11.97;3.37;;;16.50;63.50;;;;;;5073347;28;20173;-63
2023/06/27 01:51:15;;;;;;;10.40;3.50;;;16.50;64.80;;;;;;5073326;28;20197;-63
2023/06/27 01:53:41;;;;;;;8.33;3.07;;;16.50;67.90;;;;;;5072836;28;20232;-62
2023/06/27 01:56:08;;;;;;;9.87;3.20;;;16.50;69.10;;;;;;5073343;28;20156;-63
2023/06/27 01:58:34;;;;;;;11.30;3.17;;;16.40;74.00;;;;;;5073408;28;20259;-62
2023/06/27 02:01:00;;;;;;;9.80;3.40;;;16.40;71.70;;;;;;5073214;28;20223;-63
2023/06/27 02:03:25;;;;;;;9.33;3.40;;;16.40;76.50;;;;;;5073308;28;20628;-62
2023/06/27 02:05:51;;;;;;;5.17;3.20;;;16.40;78.90;;;;;;5073200;28;20173;-63
2023/06/27 02:08:17;;;;;;;10.87;3.37;;;16.30;83.20;;;;;;5072735;28;20632;-63
2023/06/27 02:10:42;;;;;;;10.97;3.70;;;16.30;85.60;;;;;;5073151;28;20161;-63
2023/06/27 02:13:08;;;;;;;11.80;3.80;;;16.30;89.00;;;;;;5073222;28;20581;-63
2023/06/27 02:15:33;;;;;;;10.30;3.43;;;16.30;89.30;;;;;;5073067;28;20671;-62
2023/06/27 02:17:59;;;;;;;12.03;4.10;;;16.20;90.60;;;;;;5073144;28;20183;-63
2023/06/27 02:20:26;;;;;;;14.67;3.97;;;16.30;93.00;;;;;;5072997;28;20631;-62
2023/06/27 02:22:51;;;;;;;7.07;3.40;;;16.30;92.50;;;;;;5072757;28;20188;-63
2023/06/27 02:25:17;;;;;;;13.43;4.40;;;16.30;91.30;;;;;;5072910;28;20246;-62
2023/06/27 02:27:43;;;;;;;8.53;3.60;;;16.20;94.50;;;;;;5073145;28;20169;-62
2023/06/27 02:30:09;;;;;;;7.77;3.37;;;16.10;95.80;;;;;;5072991;28;20651;-62
2023/06/27 02:32:34;;;;;;;9.60;3.60;;;16.10;96.60;;;;;;5072978;28;20295;-62
2023/06/27 02:35:00;;;;;;;11.47;3.93;;;16.10;97.60;;;;;;5072700;28;20200;-62
2023/06/27 02:37:25;;;;;;;12.97;3.93;;;16.10;98.00;;;;;;5072128;28;20205;-63
2023/06/27 02:39:52;;;;;;;13.70;5.97;;;16.10;98.40;;;;;;5072945;28;20191;-62
2023/06/27 02:42:18;;;;;;;13.07;3.70;;;16.10;99.20;;;;;;5072673;28;20176;-63
2023/06/27 02:44:43;;;;;;;13.50;4.60;;;16.10;99.10;;;;;;5073040;28;20226;-63
2023/06/27 02:47:09;;;;;;;11.53;3.80;;;16.10;99.90;;;;;;5072709;28;20534;-63
2023/06/27 02:49:36;;;;;;;10.20;3.80;;;16.10;99.90;;;;;;5054943;28;20202;-62
2023/06/27 02:52:01;;;;;;;12.10;4.37;;;16.00;99.90;;;;;;5071974;28;20185;-63
2023/06/27 02:54:27;;;;;;;10.43;3.57;;;16.10;99.90;;;;;;5075487;28;20678;-63
2023/06/27 02:56:53;;;;;;;12.87;4.03;;;16.00;99.90;;;;;;5076557;28;20532;-62
2023/06/27 02:59:18;;;;;;;11.97;3.80;;;16.00;99.90;;;;;;5076810;28;20608;-63
2023/06/27 03:01:44;;;;;;;14.77;3.80;;;15.90;99.90;;;;;;5076541;28;20183;-62
2023/06/27 03:04:10;;;;;;;12.77;3.60;;;15.90;99.90;;;;;;5076565;28;20654;-62
2023/06/27 03:06:35;;;;;;;12.10;3.80;;;15.80;99.90;;;;;;5075905;28;20290;-62
2023/06/27 03:09:01;;;;;;;11.67;4.20;;;15.80;99.90;;;;;;5076333;28;20213;-63
2023/06/27 03:11:27;;;;;;;10.20;3.83;;;15.80;99.90;;;;;;5076268;28;20180;-62
2023/06/27 03:13:52;;;;;;;10.27;3.53;;;15.80;99.90;;;;;;5058472;28;20200;-61
2023/06/27 03:16:18;;;;;;;12.60;3.73;;;15.80;99.90;;;;;;5075867;28;20219;-63
2023/06/27 03:18:44;;;;;;;8.67;3.40;;;15.80;99.90;;;;;;5075854;28;20165;-62
2023/06/27 03:21:09;;;;;;;13.00;4.00;;;15.80;99.90;;;;;;5075459;28;20544;-64
2023/06/27 03:23:35;;;;;;;11.13;3.90;;;15.80;99.90;;;;;;5076129;28;20180;-62
2023/06/27 03:26:00;;;;;;;11.87;3.70;;;15.70;99.90;;;;;;5075830;28;20193;-62
2023/06/27 03:28:26;;;;;;;11.40;3.70;;;15.70;99.90;;;;;;5075816;28;20177;-63
2023/06/27 03:30:51;;;;;;;13.20;4.00;;;15.70;99.90;;;;;;5075650;28;20182;-63
2023/06/27 03:33:17;;;;;;;13.73;3.60;;;15.70;99.90;;;;;;5075912;28;20279;-62
2023/06/27 03:35:43;;;;;;;9.03;3.93;;;15.60;99.90;;;;;;5074863;28;20256;-63
2023/06/27 03:38:08;;;;;;;10.03;3.87;;;15.60;99.90;;;;;;5075610;28;20224;-62
2023/06/27 03:40:34;;;;;;;11.17;3.73;;;15.60;99.90;;;;;;5075824;28;20180;-62
2023/06/27 03:43:00;;;;;;;14.47;3.60;;;15.60;99.90;;;;;;5075875;28;20530;-63
2023/06/27 03:45:26;;;;;;;9.77;3.73;;;15.50;99.90;;;;;;5075308;28;20172;-62
2023/06/27 03:47:51;;;;;;;11.63;4.03;;;15.40;99.90;;;;;;5075401;28;20165;-63
2023/06/27 03:50:17;;;;;;;13.03;4.20;;;15.40;99.90;;;;;;5075353;28;20754;-64
2023/06/27 03:52:43;;;;;;;11.93;3.70;;;15.40;99.90;;;;;;5074739;28;20203;-62
2023/06/27 03:55:08;;;;;;;12.60;4.10;;;15.40;99.90;;;;;;5074980;28;20216;-63
2023/06/27 03:57:34;;;;;;;10.60;4.27;;;15.40;99.90;;;;;;5075293;28;20200;-63
2023/06/27 03:59:59;;;;;;;19.13;4.13;;;15.50;99.90;;;;;;5075391;28;20628;-62
2023/06/27 04:02:27;;;;;;;15.67;4.40;;;15.50;99.90;;;;;;5075055;28;20582;-62
2023/06/27 04:04:52;;;;;;;13.87;3.87;;;15.50;99.90;;;;;;5073250;28;20169;-62
2023/06/27 04:07:18;;;;;;;13.27;4.73;;;15.60;99.90;;;;;;5074869;28;20179;-63
2023/06/27 04:09:43;;;;;;;13.13;4.23;;;15.60;99.90;;;;;;5074532;28;20185;-62
2023/06/27 04:12:09;;;;;;;9.93;3.93;;;15.70;99.90;;;;;;5074849;28;20168;-64
2023/06/27 04:14:35;;;;;;;10.43;4.00;;;15.80;99.90;;;;;;5074422;28;20231;-63
2023/06/27 04:17:00;;;;;;;9.97;4.40;;;16.10;99.90;;;;;;5074839;28;20173;-62
2023/06/27 04:19:26;;;;;;;12.70;4.50;;;16.30;99.90;;;;;;5074271;28;20164;-63
2023/06/27 04:21:51;;;;;;;14.53;4.73;;;16.70;99.90;;;;;;5074220;28;20621;-63
2023/06/27 04:24:17;;;;;;;14.33;4.30;;;17.10;97.10;;;;;;5074888;28;20179;-63
2023/06/27 04:26:42;;;;;;;13.57;4.20;;;17.40;89.40;;;;;;5074621;28;20687;-63
2023/06/27 04:29:08;;;;;;;10.37;4.10;;;17.90;57.40;;;;;;5074382;28;20234;-64
2023/06/27 04:31:34;;;;;;;11.80;4.93;;;18.20;52.00;;;;;;5073913;28;20179;-63
2023/06/27 04:34:00;;;;;;;9.70;4.07;;;18.90;33.50;;;;;;5073383;28;20208;-64
2023/06/27 04:36:29;;;;;;;8.95;4.22;;;19.40;15.00;;;;;;5073916;28;20643;-64
2023/06/27 04:38:54;;;;;;;11.00;4.68;;;19.70;4.30;;;;;;5073822;28;20293;-64
2023/06/27 04:41:20;;;;;;;12.43;4.55;;;20.10;1.00;;;;;;5073755;28;20691;-65
2023/06/27 04:43:46;;;;;;;12.68;5.18;;;20.60;1.00;;;;;;5039424;28;20168;-66
2023/06/27 04:46:11;;;;;;;10.60;4.60;;;21.00;1.00;;;;;;5073355;28;20168;-65
2023/06/27 04:48:37;;;;;;;12.98;4.75;;;21.40;1.00;;;;;;5073268;28;20176;-65
2023/06/27 04:51:03;;;;;;;13.32;4.85;;;21.80;1.00;;;;;;5073840;28;20161;-65
2023/06/27 04:53:30;;;;;;;14.38;4.65;;;21.70;1.00;;;;;;5073303;28;20172;-64
2023/06/27 04:55:55;;;;;;;12.55;5.07;;;21.10;1.00;;;;;;5073304;28;20259;-64
2023/06/27 04:58:21;;;;;;;12.50;4.55;;;20.30;1.00;;;;;;5073567;28;20239;-65
2023/06/27 05:00:47;;;;;;;14.93;4.93;;;19.40;1.00;;;;;;5073395;28;20169;-65
2023/06/27 05:03:17;;;;;;;9.63;4.38;;;19.40;12.70;;;;;;5072948;28;20176;-65
2023/06/27 05:05:43;;;;;;;17.33;5.20;;;20.00;1.10;;;;;;5072889;28;20250;-65
2023/06/27 05:08:10;;;;;;;20.92;5.25;;;20.90;1.00;;;;;;5072501;28;20698;-66
2023/06/27 05:10:36;;;;;;;11.70;4.70;;;21.60;1.00;;;;;;5072609;28;20271;-64
2023/06/27 05:13:01;;;;;;;17.00;4.85;;;22.30;1.00;;;;;;5072731;28;20251;-64
2023/06/27 05:15:27;;;;;;;12.52;4.55;;;23.10;1.00;;;;;;5072579;28;20216;-66
2023/06/27 05:18:06;;;;;;;15.00;4.93;;;23.80;1.00;;;;;;5072234;28;20571;-65
2023/06/27 05:20:32;;;;;;;12.73;4.55;;;25.00;1.00;;;;;;5072563;28;20258;-66
2023/06/27 05:22:57;;;;;;;9.98;4.05;;;25.40;99.90;;;;;;5071971;28;20169;-66
2023/06/27 05:25:23;;;;;;;13.30;4.47;;;25.10;99.90;;;;;;5072095;28;20219;-65
2023/06/27 05:27:48;;;;;;;11.13;4.60;;;25.20;99.90;;;;;;5072024;28;20646;-65
2023/06/27 05:30:14;;;;;;;14.48;4.90;;;25.10;99.90;;;;;;5071071;28;20187;-66
2023/06/27 05:32:40;;;;;;;13.30;4.40;;;25.90;1.00;;;;;;5071754;28;20264;-66
2023/06/27 05:35:07;;;;;;;14.63;4.68;;;27.10;1.00;;;;;;5071877;28;20797;-66
2023/06/27 05:37:32;;;;;;;9.90;4.28;;;27.70;1.00;;;;;;5071352;28;20246;-66
2023/06/27 05:39:58;;;;;;;11.80;4.70;;;27.40;99.90;;;;;;5072160;28;20174;-66
2023/06/27 05:42:23;;;;;;;11.23;4.60;;;28.00;1.00;;;;;;5072078;28;20180;-67
2023/06/27 05:44:49;;;;;;;10.18;4.20;;;28.00;99.90;;;;;;5070858;28;20180;-67
2023/06/27 05:47:15;;;;;;;9.98;4.15;;;27.60;92.10;;;;;;5072413;28;20499;-66
2023/06/27 05:49:40;;;;;;;10.02;4.35;;;27.90;99.90;;;;;;5071839;28;20259;-67
2023/06/27 05:52:06;;;;;;;12.23;4.75;;;27.90;1.00;;;;;;5071443;28;20499;-68
2023/06/27 05:54:31;;;;;;;10.45;4.25;;;27.90;1.00;;;;;;5053471;28;20254;-66
2023/06/27 05:56:57;;;;;;;10.90;4.30;;;28.50;1.00;;;;;;5071016;28;20169;-67
2023/06/27 05:59:23;;;;;;;14.10;4.40;;;28.90;99.90;;;;;;5071383;28;20238;-67
2023/06/27 06:01:49;;;;;;;13.27;4.18;;;29.20;1.00;;;;;;5071656;28;20173;-67
2023/06/27 06:04:14;;;;;;;11.43;4.15;;;29.40;1.00;;;;;;5071300;28;20176;-66
2023/06/27 06:06:40;;;;;;;11.98;4.55;;;29.70;99.90;;;;;;5071437;28;20228;-67
2023/06/27 06:09:06;;;;;;;12.90;4.35;;;30.30;99.90;;;;;;5071015;28;20172;-67
2023/06/27 06:11:36;;;;;;;11.10;4.13;;;30.70;1.00;;;;;;5069963;28;20554;-67
2023/06/27 06:14:02;;;;;;;12.10;5.38;;;31.70;1.00;;;;;;5071171;28;20295;-65
2023/06/27 06:16:29;;;;;;;11.13;4.30;;;32.40;1.00;;;;;;5070743;28;20172;-67
2023/06/27 06:18:55;;;;;;;12.88;4.82;;;32.20;1.00;;;;;;5071128;28;20307;-67
2023/06/27 06:21:20;;;;;;;10.38;4.40;;;32.80;99.90;;;;;;5071470;28;20240;-68
2023/06/27 06:23:46;;;;;;;13.25;4.78;;;32.10;99.90;;;;;;5070981;28;20604;-67
2023/06/27 06:26:11;;;;;;;9.32;4.18;;;31.00;1.00;;;;;;5070740;28;20203;-66
2023/06/27 06:28:38;;;;;;;13.50;4.45;;;30.70;1.00;;;;;;5072025;28;20164;-67
2023/06/27 06:31:04;;;;;;;8.77;4.22;;;30.40;1.00;;;;;;5075448;28;20196;-69
2023/06/27 06:33:30;;;;;;;19.15;4.70;;;29.60;99.90;;;;;;5074802;28;20169;-67
2023/06/27 06:35:56;;;;;;;7.97;4.38;;;29.10;25.10;;;;;;5075784;28;20226;-66
2023/06/27 06:38:21;;;;;;;10.60;4.20;;;29.00;40.40;;;;;;5074785;28;20232;-68
2023/06/27 06:40:47;;;;;;;11.65;4.30;;;28.80;99.90;;;;;;5075391;28;20172;-66
2023/06/27 06:43:13;;;;;;;10.25;4.30;;;29.50;3.50;;;;;;5075233;28;20164;-66
2023/06/27 06:45:38;;;;;;;11.43;4.10;;;30.10;99.90;;;;;;5075837;28;20176;-67
2023/06/27 06:48:04;;;;;;;12.32;4.47;;;29.90;99.90;;;;;;5075986;28;20173;-67
2023/06/27 06:50:32;;;;;;;10.68;4.15;;;30.20;99.90;;;;;;5075791;28;20165;-67
2023/06/27 06:52:57;;;;;;;19.20;4.75;;;30.60;95.20;;;;;;5074479;28;20175;-67
2023/06/27 06:55:23;;;;;;;10.70;4.15;;;31.30;1.00;;;;;;5074939;28;20208;-67
2023/06/27 06:57:49;;;;;;;13.48;4.35;;;31.20;1.00;;;;;;5074849;28;20168;-67
2023/06/27 07:00:17;;;;;;;8.45;4.00;;;30.80;1.00;;;;;;5075005;28;20173;-66
2023/06/27 07:02:43;;;;;;;11.90;4.07;;;29.90;1.00;;;;;;5072025;28;20177;-66
2023/06/27 07:05:10;;;;;;;8.13;3.72;;;30.00;1.00;;;;;;5058601;28;20200;-67
2023/06/27 07:07:35;;;;;;;9.93;3.78;;;29.30;99.90;;;;;;5070772;28;20253;-67
2023/06/27 07:10:01;;;;;;;12.82;3.97;;;29.00;99.90;;;;;;5070289;28;20285;-66
2023/06/27 07:12:27;;;;;;;9.23;4.00;;;29.70;1.00;;;;;;5068693;28;20180;-66
2023/06/27 07:14:52;;;;;;;10.05;3.72;;;28.90;99.90;;;;;;5068737;28;20200;-67
2023/06/27 07:17:18;;;;;;;15.40;4.40;;;29.60;1.00;;;;;;5071498;28;20183;-66
2023/06/27 07:19:43;;;;;;;12.65;4.18;;;30.50;99.90;;;;;;5073116;28;20250;-67
2023/06/27 07:22:09;;;;;;;10.43;3.60;;;31.10;1.00;;;;;;5073034;28;20689;-67
2023/06/27 07:24:35;;;;;;;9.20;3.70;;;31.20;1.00;;;;;;5054953;28;20184;-66
2023/06/27 07:27:01;;;;;;;9.00;3.90;;;31.70;1.00;;;;;;5070459;28;20259;-68
2023/06/27 07:29:26;;;;;;;9.80;3.90;;;31.30;1.00;;;;;;5071779;28;20180;-68
2023/06/27 07:31:52;;;;;;;9.18;3.85;;;31.30;1.00;;;;;;5060222;28;20176;-68
2023/06/27 07:34:18;;;;;;;11.40;4.30;;;31.10;1.00;;;;;;5057586;28;20295;-67
2023/06/27 07:36:43;;;;;;;12.05;3.97;;;31.30;1.00;;;;;;5073821;28;20525;-66
2023/06/27 07:39:10;;;;;;;7.25;3.90;;;31.30;1.00;;;;;;5071322;28;20233;-67
2023/06/27 07:41:36;;;;;;;12.55;4.25;;;32.20;1.00;;;;;;5072728;28;20168;-67
2023/06/27 07:44:02;;;;;;;10.05;3.85;;;31.90;1.00;;;;;;5074302;28;20178;-67
2023/06/27 07:46:27;;;;;;;14.80;3.78;;;32.30;1.00;;;;;;5070937;28;20196;-64
2023/06/27 07:48:54;;;;;;;8.73;4.38;;;31.90;1.00;;;;;;5071015;28;20184;-68
2023/06/27 07:51:19;;;;;;;8.75;4.00;;;30.90;1.00;;;;;;5068363;28;20183;-69
2023/06/27 07:53:45;;;;;;;11.77;4.15;;;31.00;1.00;;;;;;5073480;28;20255;-67
2023/06/27 07:56:11;;;;;;;9.50;3.58;;;31.00;1.00;;;;;;5066850;28;20177;-68
2023/06/27 07:58:36;;;;;;;10.57;3.65;;;30.80;1.00;;;;;;5062176;28;20199;-66
2023/06/27 08:01:02;;;;;;;9.82;3.40;;;30.60;1.00;;;;;;5061785;28;20169;-65
2023/06/27 08:03:28;;;;;;;11.45;4.07;;;31.00;1.00;;;;;;5062711;28;20177;-64
2023/06/27 08:05:55;;;;;;;10.38;4.07;;;31.10;1.00;;;;;;5070545;28;20260;-68
2023/06/27 08:08:21;;;;;;;8.55;3.28;;;30.90;1.00;;;;;;5069546;28;20191;-67
2023/06/27 08:10:47;;;;;;;12.98;3.83;;;31.20;1.00;;;;;;5067184;28;20597;-67
2023/06/27 08:13:12;;;;;;;10.77;4.18;;;31.90;1.00;;;;;;5073980;28;20177;-66
2023/06/27 08:15:38;;;;;;;11.15;3.88;;;31.60;1.00;;;;;;5070476;28;20204;-67
2023/06/27 08:18:04;;;;;;;15.50;3.70;;;31.90;1.00;;;;;;5067281;28;20184;-67
2023/06/27 08:20:31;;;;;;;10.43;4.20;;;32.70;1.00;;;;;;5071146;28;20237;-69
2023/06/27 08:22:56;;;;;;;6.32;3.58;;;33.20;99.90;;;;;;5068516;28;20199;-69
2023/06/27 08:25:22;;;;;;;11.43;4.90;;;33.10;99.90;;;;;;5069677;28;20678;-68
2023/06/27 08:27:50;;;;;;;7.78;3.45;;;33.90;99.90;;;;;;5067655;28;20172;-67
2023/06/27 08:30:16;;;;;;;8.32;3.90;;;34.00;99.90;;;;;;5072580;28;20238;-66
2023/06/27 08:32:42;;;;;;;6.82;3.40;;;35.10;99.90;;;;;;5071868;28;20202;-69
2023/06/27 08:35:07;;;;;;;6.82;3.33;;;35.90;99.90;;;;;;5071204;28;20216;-65
2023/06/27 08:37:33;;;;;;;9.70;3.20;;;34.70;99.90;;;;;;5068489;28;20338;-66
2023/06/27 08:39:59;;;;;;;8.70;3.08;;;34.80;99.90;;;;;;5064814;28;20176;-65
2023/06/27 08:42:25;;;;;;;6.50;2.58;;;35.20;99.90;;;;;;5070663;28;20183;-67
2023/06/27 08:44:51;;;;;;;4.97;2.60;;;35.50;99.90;;;;;;5063149;28;20172;-66
2023/06/27 08:47:20;;;;;;;7.65;3.40;;;35.20;99.90;;;;;;5071338;28;20528;-67
2023/06/27 08:49:50;;;;;;;3.53;2.35;;;35.00;99.90;;;;;;5072680;28;20184;-66
2023/06/27 08:52:18;;;;;;;4.22;2.20;;;34.90;99.90;;;;;;5069963;28;20206;-68
2023/06/27 08:54:49;;;;;;;6.38;3.10;;;35.10;99.90;;;;;;5071991;28;20215;-66
2023/06/27 08:57:15;;;;;;;4.68;2.42;;;35.50;99.90;;;;;;5053110;28;20216;-67
2023/06/27 08:59:46;;;;;;;6.75;2.33;;;35.30;85.30;;;;;;5069614;28;20631;-67
2023/06/27 09:02:13;;;;;;;5.63;2.42;;;35.10;76.60;;;;;;5072157;28;20177;-69
2023/06/27 09:04:41;;;;;;;3.95;1.95;;;33.30;70.70;;;;;;5072456;28;20187;-70
2023/06/27 09:07:07;;;;;;;4.53;2.03;;;33.30;93.50;;;;;;5054710;28;20268;-69
2023/06/27 09:09:34;;;;;;;5.65;2.50;;;33.90;95.30;;;;;;5071283;28;20603;-68
2023/06/27 09:12:02;;;;;;;4.55;2.22;;;33.30;98.70;;;;;;5069848;28;20179;-70
2023/06/27 09:14:27;;;;;;;4.32;1.98;;;34.30;99.90;;;;;;5069095;28;20264;-68
2023/06/27 09:16:53;;;;;;;5.03;1.70;;;35.40;96.00;;;;;;5070472;28;20626;-65
2023/06/27 09:19:20;;;;;;;4.53;1.83;;;35.00;67.00;;;;;;5072135;28;20542;-69
2023/06/27 09:21:48;;;;;;;2.63;2.00;;;34.20;54.70;;;;;;5067259;28;20632;-67
2023/06/27 09:24:14;;;;;;;4.63;1.95;;;34.00;49.80;;;;;;5071397;28;20220;-68
2023/06/27 09:26:40;;;;;;;2.95;1.63;;;34.40;49.70;;;;;;5071486;28;20208;-67
2023/06/27 09:29:06;;;;;;;4.28;1.83;;;34.70;41.10;;;;;;5072224;28;20225;-68
2023/06/27 09:31:33;;;;;;;7.43;2.83;;;35.20;34.80;;;;;;5070036;28;20169;-68
2023/06/27 09:34:09;;;;;;;3.47;1.70;;;35.70;25.60;;;;;;5063776;28;20287;-70
2023/06/27 09:36:39;;;;;;;6.68;1.70;;;34.30;21.30;;;;;;5068467;28;20205;-69
2023/06/27 09:39:10;;;;;;;3.83;2.40;;;34.50;21.00;;;;;;5068941;28;20338;-68
2023/06/27 09:41:44;;;;;;;4.45;1.98;;;34.80;23.00;;;;;;5057086;28;20242;-66
2023/06/27 09:44:21;;;;;;;3.92;1.90;;;33.60;21.40;;;;;;5070344;28;20187;-66
2023/06/27 09:46:47;;;;;;;4.72;1.92;;;33.10;24.40;;;;;;5068434;28;20272;-65
2023/06/27 09:49:14;;;;;;;5.38;2.00;;;32.20;45.40;;;;;;5071957;28;20237;-68
2023/06/27 09:51:43;;;;;;;3.55;1.63;;;32.10;32.70;;;;;;5070583;28;20184;-65
2023/06/27 09:54:11;;;;;;;5.80;2.00;;;31.20;39.00;;;;;;5071720;28;20261;-63
2023/06/27 09:56:37;;;;;;;4.70;2.08;;;30.70;51.50;;;;;;5068746;28;20185;-65
2023/06/27 09:59:09;;;;;;;8.18;2.28;;;29.90;99.90;;;;;;5070571;28;20642;-65
2023/06/27 10:01:39;;;;;;;8.13;2.03;;;29.80;99.90;;;;;;5071633;28;20267;-63
2023/06/27 10:04:06;;;;;;;4.68;2.10;;;28.80;99.90;;;;;;5070571;28;20184;-65
2023/06/27 10:06:32;;;;;;;5.45;1.92;;;28.80;99.90;;;;;;5069900;28;20180;-64
2023/06/27 10:08:58;;;;;;;4.45;2.00;;;28.60;99.90;;;;;;5070072;28;20177;-67
2023/06/27 10:11:25;;;;;;;3.35;2.05;;;29.30;99.90;;;;;;5056651;28;20660;-66
2023/06/27 10:13:51;;;;;;;5.18;1.98;;;30.30;99.90;;;;;;5064326;28;20534;-65
2023/06/27 10:16:20;;;;;;;4.95;2.03;;;30.00;99.90;;;;;;5067724;28;20233;-65
2023/06/27 10:18:47;;;;;;;4.13;1.60;;;29.40;99.90;;;;;;5070412;28;20177;-65
2023/06/27 10:21:14;;;;;;;3.60;2.03;;;28.10;99.90;;;;;;5068843;28;20180;-65
2023/06/27 10:23:43;;;;;;;4.93;1.73;;;27.60;99.90;;;;;;5069925;28;20184;-65
2023/06/27 10:26:09;;;;;;;5.13;1.95;;;27.70;99.90;;;;;;5056954;28;20659;-64
2023/06/27 10:28:35;;;;;;;4.85;2.20;;;27.60;99.90;;;;;;5064843;28;20205;-62
2023/06/27 10:31:04;;;;;;;4.53;1.77;;;27.60;99.90;;;;;;5068557;28;20211;-63
2023/06/27 10:33:39;;;;;;;4.85;2.33;;;27.60;1.00;;;;;;5065230;28;20284;-64
2023/06/27 10:36:05;;;;;;;4.25;2.50;;;27.40;1.00;;;;;;5069744;28;20253;-63
2023/06/27 10:38:45;;;;;;;5.05;1.85;;;27.40;1.00;;;;;;5068005;28;20220;-63
2023/06/27 10:41:22;;;;;;;5.18;2.13;;;27.20;1.00;;;;;;5067530;28;20659;-64
2023/06/27 10:43:49;;;;;;;3.92;1.70;;;27.40;1.00;;;;;;5067527;28;20172;-68
2023/06/27 10:46:22;;;;;;;4.32;1.90;;;26.50;1.00;;;;;;5067455;28;20173;-67
2023/06/27 10:49:00;;;;;;;3.97;1.90;;;26.40;1.00;;;;;;5062172;28;20174;-68
2023/06/27 10:51:43;;;;;;;4.32;1.70;;;26.20;1.00;;;;;;5070067;28;20200;-67
2023/06/27 10:54:08;;;;;;;3.75;2.22;;;26.50;1.00;;;;;;5062221;28;20548;-67
2023/06/27 10:56:40;;;;;;;2.88;1.77;;;26.90;1.00;;;;;;5070132;28;20180;-68
2023/06/27 10:59:09;;;;;;;5.25;1.73;;;27.20;1.00;;;;;;5038928;28;20618;-67
2023/06/27 11:01:40;;;;;;;4.13;1.67;;;27.10;1.00;;;;;;5051516;28;20241;-67
2023/06/27 11:04:17;;;;;;;5.90;2.00;;;27.30;1.00;;;;;;5050888;28;20185;-68
2023/06/27 11:06:45;;;;;;;3.67;1.80;;;27.20;1.00;;;;;;5060463;28;20708;-67
2023/06/27 11:09:16;;;;;;;12.07;2.88;;;27.10;1.00;;;;;;5070942;28;20176;-67
2023/06/27 11:12:06;;;;;;;1.83;1.60;;;27.10;1.00;;;;;;5070937;28;20556;-65
2023/06/27 11:14:40;;;;;;;6.47;1.83;;;26.80;1.00;;;;;;5053608;28;20262;-65
2023/06/27 11:17:06;;;;;;;6.53;1.83;;;26.30;1.00;;;;;;5056940;28;20645;-65
2023/06/27 11:19:34;;;;;;;6.70;2.05;;;26.10;99.90;;;;;;5074609;28;20169;-65
2023/06/27 11:22:03;;;;;;;5.75;2.40;;;26.10;62.00;;;;;;5073505;28;20181;-65
2023/06/27 11:24:31;;;;;;;8.63;2.20;;;25.90;99.90;;;;;;5073197;28;20484;-65
2023/06/27 11:26:59;;;;;;;5.10;1.73;;;25.80;99.90;;;;;;5074931;28;20169;-66
2023/06/27 11:29:25;;;;;;;6.25;2.10;;;25.70;99.90;;;;;;5074548;28;20636;-66
2023/06/27 11:31:53;;;;;;;7.85;1.88;;;25.50;1.00;;;;;;5074507;28;20204;-64
2023/06/27 11:34:19;;;;;;;3.97;1.98;;;25.70;1.00;;;;;;5074088;28;20259;-65
2023/06/27 11:36:45;;;;;;;5.53;2.05;;;26.00;99.90;;;;;;5073643;28;20639;-65
2023/06/27 11:39:11;;;;;;;5.65;2.30;;;26.30;99.90;;;;;;5073113;28;20228;-65
2023/06/27 11:41:41;;;;;;;5.28;2.35;;;26.50;47.20;;;;;;5071348;28;20605;-65
2023/06/27 11:44:17;;;;;;;3.97;2.40;;;26.30;99.90;;;;;;5068670;28;20177;-64
2023/06/27 11:46:50;;;;;;;6.95;2.00;;;26.10;99.90;;;;;;5059548;28;20185;-63
2023/06/27 11:49:16;;;;;;;3.45;2.05;;;26.20;99.90;;;;;;5064299;28;20177;-63
2023/06/27 11:51:42;;;;;;;5.22;2.38;;;26.30;99.90;;;;;;5067662;28;20177;-65
2023/06/27 11:54:08;;;;;;;6.07;2.22;;;26.40;99.90;;;;;;5069839;28;20211;-65
2023/06/27 11:56:38;;;;;;;8.38;2.30;;;26.20;99.90;;;;;;5072511;28;20204;-65
2023/06/27 11:59:06;;;;;;;3.90;1.83;;;26.00;99.90;;;;;;5072391;28;20628;-63
2023/06/27 12:01:33;;;;;;;3.63;1.73;;;25.40;99.90;;;;;;5071218;28;20647;-64
2023/06/27 12:04:01;;;;;;;3.97;1.90;;;25.40;1.00;;;;;;5072319;28;20737;-66
2023/06/27 12:06:29;;;;;;;4.57;2.45;;;25.70;99.90;;;;;;5071336;28;20176;-64
2023/06/27 12:08:56;;;;;;;4.28;2.00;;;26.00;99.90;;;;;;5056624;28;20666;-65
2023/06/27 12:11:32;;;;;;;8.70;2.45;;;26.30;99.90;;;;;;5086655;28;20655;-64
2023/06/27 12:13:58;;;;;;;3.78;2.03;;;26.60;1.00;;;;;;5063306;28;20242;-63
2023/06/27 12:16:25;;;;;;;3.88;1.77;;;26.70;1.00;;;;;;5072515;28;20176;-65
2023/06/27 12:18:52;;;;;;;2.92;1.73;;;26.50;1.00;;;;;;5053167;28;20246;-63
2023/06/27 12:21:19;;;;;;;4.32;1.90;;;26.00;1.00;;;;;;5071891;28;20275;-63
2023/06/27 12:23:48;;;;;;;4.57;1.90;;;25.80;1.00;;;;;;5066751;28;20183;-64
2023/06/27 12:26:14;;;;;;;4.63;1.88;;;26.20;1.00;;;;;;5069088;28;20223;-64
2023/06/27 12:28:59;;;;;;;2.72;1.90;;;26.10;1.00;;;;;;5070995;28;20208;-63
2023/06/27 12:31:26;;;;;;;6.55;2.30;;;26.50;1.00;;;;;;5066072;28;20309;-63
2023/06/27 12:33:54;;;;;;;4.22;2.10;;;26.60;1.00;;;;;;5066682;28;20196;-63
2023/06/27 12:36:21;;;;;;;4.43;2.10;;;26.90;1.00;;;;;;5072276;28;20185;-62
2023/06/27 12:38:47;;;;;;;5.00;2.22;;;26.50;1.00;;;;;;5072185;28;20220;-63
2023/06/27 12:41:13;;;;;;;4.80;2.33;;;26.20;84.90;;;;;;5070783;28;20703;-64
2023/06/27 12:43:39;;;;;;;4.20;2.15;;;26.00;99.90;;;;;;5069987;28;20188;-63
2023/06/27 12:46:05;;;;;;;7.03;2.40;;;26.40;44.30;;;;;;5069417;28;20188;-64